Latest Weather Observations for Macquarie Island

IDT60801

Issued at 8:05 pm EDT Wednesday 22 October 2014 (issued every 30 minutes, with the page automatically refreshed every 10 minutes)

About weather observations | Map of weather stations | Latest weather observations for TAS | Other Formats
Station Details ID: 300004 Name: MACQUARIE ISLAND Lat: -54.50 Lon: 158.94 Height: 6.0 m
Data from the previous 72 hours. | See also: Recent months at Macquarie Island
Date/Time
EDT
Temp
°C
App
Temp
°C
Dew
Point
Rel
Hum
%
Delta-T
°C
Wind Press
QNH
hPa
Press
MSL
hPa
Rain
since 9 am
mm
Dir
 
Spd
km/h
Gust
km/h
Spd
kts
Gust
kts
22/08:00pm 5.7 -2.1 5.1 96 0.3 NNW 35 46 19 25 990.6 - 6.6
22/07:48pm 5.9 -3.9 5.3 96 0.3 NNW 46 52 25 28 990.8 - 6.4
22/07:46pm 5.9 -4.7 5.3 96 0.3 N 50 54 27 29 990.8 - 6.4
22/07:40pm 5.8 -2.7 5.2 96 0.3 NNW 39 44 21 24 991.1 - 6.4
22/07:38pm 5.8 -3.1 5.2 96 0.3 N 41 44 22 24 991.1 - 6.2
22/07:30pm 5.9 -4.7 5.3 96 0.3 NNW 50 59 27 32 991.0 - 5.8
22/07:00pm 5.9 -4.3 5.3 96 0.3 NNW 48 57 26 31 991.6 - 5.4
22/06:30pm 5.9 -5.4 5.3 96 0.3 NNW 54 61 29 33 992.2 - 4.8
22/06:00pm 5.7 -4.9 5.1 96 0.3 NNW 50 57 27 31 993.2 993.5 4.2
22/05:30pm 5.7 -4.9 5.1 96 0.3 NNW 50 56 27 30 994.2 - 3.6
22/05:00pm 5.6 -4.3 4.9 95 0.3 NNW 46 56 25 30 995.1 - 3.2
22/04:30pm 5.5 -4.4 4.8 95 0.3 NNW 46 54 25 29 996.0 - 2.8
22/04:00pm 5.3 -4.6 4.6 95 0.3 NNW 46 52 25 28 997.1 - 2.2
22/03:30pm 5.4 -4.1 4.7 95 0.3 NNW 44 52 24 28 997.8 - 1.4
22/03:00pm 5.4 -4.0 4.5 94 0.4 NNW 43 50 23 27 998.8 999.1 0.8
22/02:30pm 5.4 -3.6 4.7 95 0.3 NNW 41 50 22 27 999.8 - 0.8
22/02:00pm 5.4 -3.6 4.5 94 0.4 NNW 41 48 22 26 1000.4 - 0.6
22/01:30pm 5.6 -2.6 4.6 93 0.4 NNW 37 44 20 24 1001.2 - 0.6
22/01:00pm 5.3 -3.3 4.4 94 0.4 NNW 39 48 21 26 1002.2 - 0.6
22/12:52pm 5.3 -4.1 4.4 94 0.4 NNW 43 46 23 25 1002.4 - 0.6
22/12:50pm 5.3 -4.1 4.4 94 0.4 NE 43 48 23 26 1002.5 - 0.6
22/12:45pm 5.3 -3.3 4.4 94 0.4 NNW 39 43 21 23 1002.7 - 0.6
22/12:40pm 5.3 -3.3 4.4 94 0.4 NNE 39 44 21 24 1002.8 - 0.4
22/12:30pm 5.4 -2.9 4.4 93 0.4 NNW 37 44 20 24 1002.9 - 0.2
22/12:22pm 5.4 -3.6 4.4 93 0.4 N 41 46 22 25 1003.0 - 0.2
22/12:16pm 5.5 -3.9 4.3 92 0.5 NNE 43 46 23 25 1003.1 - 0.2
22/12:00pm 5.6 -3.8 4.4 92 0.5 NNW 43 50 23 27 1003.6 1003.9 0.2
22/11:30am 5.4 -3.3 4.2 92 0.5 NNW 39 46 21 25 1004.5 - 0.2
22/11:16am 5.3 -3.4 4.1 92 0.5 N 39 44 21 24 1004.9 - 0.2
22/11:14am 5.3 -3.8 4.1 92 0.5 NNE 41 46 22 25 1005.0 - 0.2
22/11:12am 5.3 -3.8 4.1 92 0.5 NNW 41 46 22 25 1005.0 - 0.2
22/11:00am 5.4 -4.0 4.2 92 0.5 NNE 43 48 23 26 1005.3 - 0.2
22/10:30am 5.2 -3.9 4.2 93 0.4 N 41 48 22 26 1005.8 - 0.2
22/10:00am 5.4 -4.0 4.4 93 0.4 N 43 52 23 28 1006.1 - 0.2
22/09:49am 5.3 -4.1 4.3 93 0.4 NNE 43 50 23 27 1006.3 - 0.2
22/09:46am 5.3 -4.1 4.3 93 0.4 N 43 46 23 25 1006.3 - 0.2
22/09:32am 5.3 -4.7 4.3 93 0.4 NNE 46 52 25 28 1006.5 - 0.2
22/09:30am 5.3 -4.3 4.4 94 0.4 N 44 54 24 29 1006.5 - 0.2
22/09:00am 5.1 -4.6 4.1 93 0.4 NNE 44 50 24 27 1006.9 1007.2 0.0
22/08:56am 5.2 -4.4 4.2 93 0.4 NNE 44 50 24 27 1007.0 - 0.0
22/08:51am 5.2 -4.3 4.0 92 0.5 N 43 48 23 26 1007.1 - 0.0
22/08:45am 5.2 -4.3 4.0 92 0.5 NNE 43 52 23 28 1007.2 - 0.0
22/08:39am 5.2 -4.3 4.0 92 0.5 N 43 50 23 27 1007.3 - 0.0
22/08:34am 5.3 -4.2 4.1 92 0.5 NW 43 50 23 27 1007.4 - 0.0
22/08:30am 5.3 -4.4 4.0 91 0.5 N 44 50 24 27 1007.3 - 0.0
22/08:00am 5.6 -3.9 4.1 90 0.6 NW 43 50 23 27 1007.7 - 0.0
22/07:30am 5.2 -4.3 3.9 91 0.5 NW 43 50 23 27 1007.9 - 0.0
22/07:00am 5.0 -3.8 3.7 91 0.5 WNW 39 48 21 26 1008.1 - 0.0
22/06:30am 5.0 -4.1 3.8 92 0.5 WNW 41 48 22 26 1008.2 - 0.0
22/06:00am 5.0 -4.7 3.8 92 0.5 WNW 44 52 24 28 1008.4 1008.7 0.0
22/05:30am 4.9 -5.2 3.7 92 0.5 NW 46 57 25 31 1008.6 - 0.0
22/05:00am 4.8 -5.7 3.5 91 0.5 NW 48 57 26 31 1008.9 - 0.0
22/04:30am 4.9 -4.9 3.6 91 0.5 WNW 44 54 24 29 1009.2 - 0.0
22/04:00am 4.9 -5.3 3.4 90 0.6 WNW 46 56 25 30 1009.5 - 0.0
22/03:30am 4.9 -4.9 3.4 90 0.6 WNW 44 56 24 30 1009.8 - 0.0
22/03:00am 4.8 -5.4 3.3 90 0.6 WNW 46 57 25 31 1009.9 1010.2 0.0
22/02:30am 4.9 -5.7 3.2 89 0.7 WNW 48 59 26 32 1010.1 - 0.0
22/02:00am 5.0 -5.9 3.3 89 0.7 WNW 50 59 27 32 1010.4 - 0.0
22/01:30am 5.0 -5.5 3.5 90 0.6 WNW 48 63 26 34 1010.3 - 0.0
22/01:00am 5.0 -5.5 3.5 90 0.6 WNW 48 57 26 31 1010.5 - 0.0
22/12:30am 5.0 -5.9 3.3 89 0.7 WNW 50 63 27 34 1010.3 - 0.0
22/12:00am 5.1 -5.5 3.3 88 0.7 WNW 48 65 26 35 1010.6 1010.9 0.0
 
Date/Time
EDT
Temp
°C
App
Temp
°C
Dew
Point
Rel
Hum
%
Delta-T
°C
Wind Press
QNH
hPa
Press
MSL
hPa
Rain
since 9 am
mm
Dir
 
Spd
km/h
Gust
km/h
Spd
kts
Gust
kts
21/11:30pm 5.1 -5.4 3.6 90 0.6 WNW 48 67 26 36 1010.7 - 0.0
21/11:29pm 5.0 -5.5 3.5 90 0.6 WNW 48 67 26 36 1010.7 - 0.0
21/11:00pm 5.1 -5.4 3.6 90 0.6 WNW 48 59 26 32 1010.7 - 0.0
21/10:30pm 5.1 -5.8 3.4 89 0.7 WNW 50 63 27 34 1010.7 - 0.0
21/10:00pm 5.2 -4.5 3.7 90 0.6 W 44 56 24 30 1010.9 - 0.0
21/09:30pm 5.2 -4.6 3.5 89 0.7 W 44 56 24 30 1011.1 - 0.0
21/09:00pm 5.3 -6.7 3.6 89 0.7 WNW 56 67 30 36 1010.9 1011.2 0.0
21/08:30pm 5.3 -5.6 3.8 90 0.6 WNW 50 59 27 32 1010.8 - 0.0
21/08:00pm 5.3 -5.2 3.8 90 0.6 WNW 48 59 26 32 1010.7 - 0.0
21/07:30pm 5.3 -5.6 3.8 90 0.6 WNW 50 59 27 32 1010.4 - 0.0
21/07:00pm 5.4 -4.3 4.1 91 0.6 W 44 54 24 29 1010.6 - 0.0
21/06:30pm 5.4 -4.3 4.1 91 0.6 W 44 54 24 29 1010.3 - 0.0
21/06:00pm 5.5 -4.1 4.2 91 0.6 W 44 56 24 30 1010.2 1010.5 0.0
21/05:30pm 5.4 -4.2 4.4 93 0.4 W 44 54 24 29 1010.0 - 0.0
21/05:13pm 5.3 -4.7 4.4 94 0.4 W 46 65 25 35 1010.1 - 0.0
21/05:00pm 5.3 -4.7 4.4 94 0.4 W 46 57 25 31 1010.0 - 0.0
21/04:30pm 5.4 -4.6 4.5 94 0.4 W 46 56 25 30 1010.1 - 0.0
21/04:00pm 5.5 -4.5 4.5 93 0.4 WNW 46 56 25 30 1009.9 - 0.0
21/03:30pm 5.6 -3.9 4.7 94 0.4 WNW 44 54 24 29 1009.9 - 0.0
21/03:00pm 5.5 -3.1 4.6 94 0.4 W 39 48 21 26 1010.1 1010.4 0.0
21/02:30pm 5.4 -3.6 4.7 95 0.3 W 41 50 22 27 1009.9 - 0.0
21/02:00pm 5.4 -3.6 4.7 95 0.3 W 41 52 22 28 1010.1 - 0.0
21/01:30pm 5.5 -3.1 4.6 94 0.4 W 39 50 21 27 1010.0 - 0.0
21/01:00pm 5.4 -2.8 4.7 95 0.3 WNW 37 50 20 27 1009.9 - 0.0
21/12:30pm 5.5 -2.4 4.6 94 0.4 W 35 44 19 24 1010.0 - 0.0
21/11:30am 5.5 -2.4 4.6 94 0.4 W 35 46 19 25 1009.9 - 0.0
21/11:00am 5.5 -2.7 4.6 94 0.4 WNW 37 46 20 25 1009.8 - 0.0
21/10:30am 5.3 -3.0 4.4 94 0.4 WNW 37 46 20 25 1009.9 - 0.0
21/10:00am 5.3 -2.3 4.1 92 0.5 W 33 43 18 23 1009.8 - 0.0
21/09:30am 5.3 -3.5 3.6 89 0.7 W 39 48 21 26 1009.7 - 0.0
21/09:00am 4.9 -4.7 3.2 89 0.7 W 43 52 23 28 1009.7 1010.0 4.6
21/08:30am 5.0 -4.7 2.9 86 0.9 W 43 54 23 29 1009.6 - 4.6
21/08:00am 4.8 -5.5 2.7 86 0.9 W 46 57 25 31 1009.2 - 4.6
21/07:30am 4.6 -5.8 2.3 85 0.9 W 46 57 25 31 1008.9 - 4.6
21/07:00am 4.6 -7.3 2.0 83 1.0 W 54 67 29 36 1008.6 - 4.6
21/06:53am 4.5 -5.9 1.9 83 1.0 W 46 65 25 35 1008.4 - 4.6
21/06:30am 4.4 -6.9 1.1 79 1.3 W 50 65 27 35 1008.0 - 4.6
21/06:00am 4.2 -7.1 0.9 79 1.3 W 50 72 27 39 1007.5 1007.8 4.6
21/05:30am 4.2 -7.6 0.7 78 1.3 W 52 74 28 40 1006.9 - 4.6
21/05:00am 4.2 -7.1 1.1 80 1.2 W 50 69 27 37 1006.2 - 4.6
21/04:30am 4.2 -9.3 0.5 77 1.4 W 61 80 33 43 1005.6 - 4.6
21/04:00am 4.2 -8.9 0.5 77 1.4 W 59 78 32 42 1004.8 - 4.6
21/03:30am 4.3 -8.8 0.8 78 1.3 W 59 82 32 44 1004.4 - 4.6
21/03:00am 4.2 -9.3 0.5 77 1.4 W 61 83 33 45 1003.7 1004.0 4.6
21/02:30am 4.3 -9.5 0.8 78 1.3 W 63 82 34 44 1003.2 - 4.6
21/02:00am 4.3 -8.8 0.6 77 1.4 W 59 85 32 46 1002.6 - 4.6
21/01:30am 4.3 -9.1 1.0 79 1.3 W 61 83 33 45 1002.0 - 4.6
21/01:03am 4.3 -8.7 1.2 80 1.2 W 59 80 32 43 1001.6 - 4.6
21/01:00am 4.3 -9.1 1.2 80 1.2 W 61 78 33 42 1001.5 - 4.6
21/12:30am 4.3 -8.7 1.3 81 1.2 W 59 93 32 50 1000.8 - 4.6
21/12:00am 4.4 -9.2 2.1 85 0.9 W 63 82 34 44 1000.3 1000.6 4.6
 
Date/Time
EDT
Temp
°C
App
Temp
°C
Dew
Point
Rel
Hum
%
Delta-T
°C
Wind Press
QNH
hPa
Press
MSL
hPa
Rain
since 9 am
mm
Dir
 
Spd
km/h
Gust
km/h
Spd
kts
Gust
kts
20/11:30pm 4.5 -10.2 2.7 88 0.7 W 69 89 37 48 999.8 - 4.6
20/11:02pm 4.6 -9.6 2.9 89 0.7 W 67 85 36 46 998.9 - 4.6
20/11:00pm 4.6 -9.2 3.1 90 0.6 W 65 82 35 44 998.7 - 4.6
20/10:30pm 4.6 -9.6 3.4 92 0.5 W 67 87 36 47 998.1 - 4.4
20/10:09pm 4.9 -9.6 3.4 90 0.6 W 69 89 37 48 997.8 - 4.2
20/10:00pm 4.9 -9.3 3.4 90 0.6 W 67 83 36 45 997.6 - 4.2
20/09:34pm 4.8 -8.2 3.3 90 0.6 W 61 80 33 43 996.8 - 4.2
20/09:30pm 4.9 -8.5 3.4 90 0.6 W 63 80 34 43 996.8 - 4.2
20/09:02pm 4.7 -7.5 3.5 92 0.5 W 57 78 31 42 996.4 - 4.2
20/09:00pm 4.7 -7.3 3.7 93 0.4 W 56 70 30 38 996.4 996.7 4.2
20/08:43pm 4.8 -7.4 3.6 92 0.5 W 57 76 31 41 996.1 - 4.2
20/08:30pm 4.7 -7.5 3.7 93 0.4 W 57 69 31 37 996.1 - 4.2
20/08:16pm 4.6 -6.7 3.7 94 0.4 W 52 70 28 38 995.8 - 4.2
20/08:00pm 4.6 -6.7 3.7 94 0.4 W 52 67 28 36 995.6 - 4.2
20/07:35pm 4.5 -6.4 3.6 94 0.4 W 50 69 27 37 995.6 - 4.0
20/07:30pm 4.6 -5.9 3.7 94 0.4 W 48 63 26 34 995.8 - 4.0
20/07:12pm 4.5 -6.4 3.6 94 0.4 W 50 69 27 37 995.6 - 3.6
20/07:00pm 4.5 -5.6 3.6 94 0.4 W 46 56 25 30 995.4 - 3.6
20/06:46pm 4.4 -6.5 3.4 93 0.4 W 50 69 27 37 994.9 - 3.4
20/06:30pm 4.4 -6.1 3.4 93 0.4 W 48 61 26 33 994.9 - 3.4
20/06:00pm 4.4 -5.8 3.2 92 0.5 W 46 59 25 32 994.6 994.9 3.2
20/05:30pm 4.6 -7.2 2.8 88 0.7 W 54 67 29 36 994.3 - 3.0
20/05:00pm 4.8 -7.6 2.5 85 0.9 W 57 69 31 37 994.2 - 3.0
20/04:30pm 4.9 -7.3 2.4 84 1.0 W 56 67 30 36 993.8 - 3.0
20/04:19pm 4.9 -7.6 2.3 83 1.0 W 57 76 31 41 993.8 - 3.0
20/04:00pm 4.9 -8.7 2.1 82 1.1 W 63 78 34 42 993.9 - 3.0
20/03:52pm 5.0 -7.4 2.4 83 1.1 W 57 76 31 41 993.7 - 3.0
20/03:30pm 4.9 -8.3 2.4 84 1.0 W 61 72 33 39 993.6 - 3.0
20/03:00pm 5.4 -8.1 2.8 83 1.1 W 63 78 34 42 993.4 993.7 3.0
20/02:30pm 5.8 -6.4 3.6 86 0.9 W 57 72 31 39 992.8 - 3.0
20/02:00pm 4.9 -7.4 3.2 89 0.7 W 57 70 31 38 992.3 - 3.0
20/01:48pm 5.0 -5.9 3.5 90 0.6 W 50 72 27 39 992.3 - 3.0
20/01:30pm 4.7 -6.6 3.5 92 0.5 W 52 67 28 36 991.9 - 2.8
20/01:00pm 4.8 -8.2 3.3 90 0.6 W 61 83 33 45 991.8 - 2.6
20/12:46pm 5.3 -8.5 3.5 88 0.7 WNW 65 85 35 46 991.5 - 2.6
20/12:30pm 5.1 -8.7 3.3 88 0.7 WNW 65 78 35 42 991.5 - 2.6
20/12:12pm 5.2 -8.2 3.4 88 0.7 WNW 63 87 34 47 991.5 - 2.6
20/12:00pm 5.1 -8.3 3.4 89 0.7 NW 63 80 34 43 991.7 992.0 2.6
20/11:43am 4.5 -7.9 2.8 89 0.7 WNW 57 80 31 43 992.0 - 2.6
20/11:41am 4.6 -9.3 2.9 89 0.7 NNW 65 76 35 41 992.1 - 2.6
20/11:30am 4.5 -9.4 2.8 89 0.7 WNW 65 80 35 43 992.2 - 2.6
20/11:00am 3.7 -9.1 2.2 90 0.6 WNW 59 83 32 45 992.8 - 2.6
20/10:32am 3.2 -8.7 2.2 93 0.4 WNW 54 72 29 39 993.5 - 2.4
20/10:30am 3.1 -8.4 2.1 93 0.4 WNW 52 67 28 36 993.5 - 2.4
20/10:23am 3.1 -8.4 2.2 94 0.4 W 52 70 28 38 993.6 - 2.2
20/10:00am 2.5 -7.9 1.8 95 0.3 W 46 57 25 31 994.2 - 2.2
20/09:42am 1.8 -10.9 0.8 93 0.4 W 57 76 31 41 994.3 - 1.8
20/09:30am 2.4 -9.6 1.5 94 0.3 W 54 67 29 36 994.4 - 1.2
20/09:02am 1.9 -10.8 0.7 92 0.4 W 57 76 31 41 994.6 - 0.2
20/09:00am 2.1 -11.0 0.9 92 0.5 W 59 76 32 41 994.5 994.8 3.4
20/08:30am 2.3 -10.4 0.8 90 0.6 W 57 80 31 43 994.3 - 2.8
20/08:08am 2.2 -10.3 0.6 89 0.6 W 56 74 30 40 994.4 - 2.6
20/08:00am 2.1 -9.2 0.9 92 0.5 W 50 67 27 36 994.8 - 2.6
20/07:42am 1.6 -8.7 0.0 89 0.6 W 44 63 24 34 994.8 - 1.8
20/07:30am 1.7 -9.4 -0.2 87 0.7 W 48 63 26 34 995.0 - 1.8
20/07:04am 1.8 -11.2 -1.4 79 1.1 W 57 76 31 41 995.3 - 1.6
20/07:00am 2.0 -11.4 -1.8 76 1.3 W 59 76 32 41 995.2 - 1.6
20/06:34am 2.2 -10.5 -3.3 67 1.9 W 54 72 29 39 995.0 - 1.6
20/06:30am 2.0 -11.1 -3.9 65 1.9 W 56 70 30 38 995.1 - 1.6
20/06:03am 1.5 -12.4 -2.8 73 1.5 W 61 91 33 49 994.4 - 1.6
20/06:00am 1.4 -12.4 -1.7 80 1.1 W 61 76 33 41 994.3 994.6 1.6
20/05:44am 1.1 -12.6 -0.8 87 0.7 W 61 80 33 43 994.4 - 1.6
20/05:42am 1.2 -13.2 -0.7 87 0.7 W 65 80 35 43 994.5 - 1.6
20/05:40am 1.3 -9.2 -0.9 85 0.8 W 44 80 24 43 994.1 - 1.6
20/05:30am 0.9 -10.3 -1.0 87 0.7 W 48 63 26 34 993.8 - 1.6
20/05:00am -0.4 -13.8 -1.4 93 0.3 W 59 91 32 49 994.1 - 1.4
20/04:52am -0.5 -13.0 -2.2 88 0.6 W 54 91 29 49 994.7 - 1.4
20/04:37am 0.9 -10.5 -1.8 82 1.0 W 48 67 26 36 993.7 - 1.2
20/04:30am 0.9 -10.1 -2.0 81 1.1 W 46 59 25 32 993.6 - 1.2
20/04:02am 1.2 -11.4 -2.5 76 1.3 W 54 72 29 39 993.3 - 1.2
20/04:00am 1.1 -11.9 -2.6 76 1.3 W 56 72 30 39 993.3 - 1.2
20/03:30am -0.8 -13.3 -2.2 90 0.4 WSW 54 87 29 47 994.1 - 1.2
20/03:24am -0.1 -13.1 -2.8 82 0.9 W 56 87 30 47 994.0 - 1.2
20/03:00am -0.2 -11.2 -2.3 86 0.7 W 46 69 25 37 993.7 994.0 1.2
20/02:57am -0.4 -11.4 -2.1 88 0.6 WSW 46 69 25 37 993.8 - 1.2
20/02:49am -0.8 -12.2 -2.4 89 0.5 WSW 48 63 26 34 994.0 - 1.2
20/02:39am 0.2 -15.5 -2.8 80 1.0 WSW 70 91 38 49 993.9 - 1.2
20/02:36am 1.2 -10.4 -3.5 71 1.6 W 48 70 26 38 993.4 - 1.2
20/02:30am 0.9 -11.1 -3.9 70 1.6 W 50 67 27 36 993.3 - 1.2
20/02:00am -0.2 -12.0 -2.7 83 0.8 W 50 72 27 39 993.4 - 1.0
20/01:30am -0.6 -13.5 -2.3 88 0.5 WSW 56 85 30 46 993.4 - 0.6
20/01:24am 0.6 -11.1 -1.5 86 0.8 WSW 50 83 27 45 992.9 - 0.6
20/01:01am 1.9 -9.4 -4.2 64 2.1 W 46 65 25 35 992.5 - 0.4
20/01:00am 1.9 -9.7 -4.0 65 2.1 W 48 65 26 35 992.5 - 0.4
20/12:30am 1.8 -10.1 -3.1 70 1.6 W 50 61 27 33 992.4 - 0.4
20/12:00am 1.8 -9.2 -1.8 77 1.3 WSW 46 69 25 37 992.3 992.6 0.4
 
Date/Time
EDT
Temp
°C
App
Temp
°C
Dew
Point
Rel
Hum
%
Delta-T
°C
Wind Press
QNH
hPa
Press
MSL
hPa
Rain
since 9 am
mm
Dir
 
Spd
km/h
Gust
km/h
Spd
kts
Gust
kts
19/11:33pm 2.1 -9.4 -3.2 68 1.8 W 48 67 26 36 991.7 - 0.4
19/11:30pm 2.1 -9.1 -3.4 67 1.8 W 46 63 25 34 991.7 - 0.4
19/11:16pm 2.4 -6.2 0.5 87 0.7 W 35 57 19 31 991.5 - 0.4
19/11:00pm 2.0 -7.0 -0.2 85 0.8 W 37 44 20 24 991.2 - 0.4
19/10:30pm 0.8 -9.5 -1.3 86 0.7 WSW 43 63 23 34 991.5 - 0.4
19/10:09pm 3.0 -7.3 -1.2 74 1.5 W 43 65 23 35 990.9 - 0.0
19/10:00pm 2.9 -6.7 -1.8 71 1.7 W 39 50 21 27 990.7 - 0.0
19/09:30pm 2.7 -6.6 -2.4 69 1.8 W 37 46 20 25 990.6 - 0.0
19/09:00pm 2.4 -6.9 -2.3 71 1.7 W 37 48 20 26 990.5 990.8 0.0
19/08:30pm 2.4 -6.6 -2.5 70 1.7 WSW 35 48 19 26 990.3 - 0.0

Other Formats:

Comma delimited format used in spreadsheet applications
http://www.bom.gov.au/fwo/IDT60801/IDT60801.94998.axf

JavaScript Object Notation format (JSON) in row-major order
http://www.bom.gov.au/fwo/IDT60801/IDT60801.94998.json